sensor_id;sensor_type;location;lat;lon;timestamp;pressure;altitude;pressure_sealevel;temperature;humidity
17072;BME280;7731;50.720;6.912;2022-08-19T00:01:05;99820.09;;;18.42;91.99
17072;BME280;7731;50.720;6.912;2022-08-19T00:03:36;99818.16;;;18.44;90.99
17072;BME280;7731;50.720;6.912;2022-08-19T00:06:06;99820.09;;;18.42;91.53
17072;BME280;7731;50.720;6.912;2022-08-19T00:08:45;99818.16;;;18.34;91.84
17072;BME280;7731;50.720;6.912;2022-08-19T00:11:15;99816.63;;;18.32;91.60
17072;BME280;7731;50.720;6.912;2022-08-19T00:13:52;99814.13;;;18.11;92.70
17072;BME280;7731;50.720;6.912;2022-08-19T00:16:25;99817.13;;;18.06;93.41
17072;BME280;7731;50.720;6.912;2022-08-19T00:18:56;99820.56;;;18.16;93.35
17072;BME280;7731;50.720;6.912;2022-08-19T00:21:26;99818.69;;;18.18;92.55
17072;BME280;7731;50.720;6.912;2022-08-19T00:23:59;99826.56;;;18.07;92.78
17072;BME280;7731;50.720;6.912;2022-08-19T00:26:30;99823.75;;;18.20;93.17
17072;BME280;7731;50.720;6.912;2022-08-19T00:29:04;99825.81;;;18.26;92.19
17072;BME280;7731;50.720;6.912;2022-08-19T00:31:35;99815.88;;;18.00;93.56
17072;BME280;7731;50.720;6.912;2022-08-19T00:34:09;99815.75;;;17.81;94.86
17072;BME280;7731;50.720;6.912;2022-08-19T00:36:40;99808.88;;;17.70;95.99
17072;BME280;7731;50.720;6.912;2022-08-19T00:39:17;99810.16;;;17.76;95.64
17072;BME280;7731;50.720;6.912;2022-08-19T00:41:49;99815.50;;;17.84;94.78
17072;BME280;7731;50.720;6.912;2022-08-19T00:44:25;99821.16;;;17.89;95.87
17072;BME280;7731;50.720;6.912;2022-08-19T00:46:58;99817.34;;;17.93;94.90
17072;BME280;7731;50.720;6.912;2022-08-19T00:49:35;99816.53;;;17.93;94.67
17072;BME280;7731;50.720;6.912;2022-08-19T00:52:11;99813.44;;;17.88;95.85
17072;BME280;7731;50.720;6.912;2022-08-19T00:54:46;99815.50;;;17.84;95.21
17072;BME280;7731;50.720;6.912;2022-08-19T00:57:28;99820.44;;;17.87;95.40
17072;BME280;7731;50.720;6.912;2022-08-19T01:00:00;99822.81;;;17.69;96.89
17072;BME280;7731;50.720;6.912;2022-08-19T01:02:32;99821.78;;;17.81;96.27
17072;BME280;7731;50.720;6.912;2022-08-19T01:05:10;99819.56;;;17.77;96.60
17072;BME280;7731;50.720;6.912;2022-08-19T01:07:42;99820.47;;;17.66;96.79
17072;BME280;7731;50.720;6.912;2022-08-19T01:10:19;99829.09;;;17.66;97.02
17072;BME280;7731;50.720;6.912;2022-08-19T01:12:54;99824.72;;;17.67;97.43
17072;BME280;7731;50.720;6.912;2022-08-19T01:15:30;99818.13;;;17.63;97.37
17072;BME280;7731;50.720;6.912;2022-08-19T01:18:06;99808.00;;;17.60;97.66
17072;BME280;7731;50.720;6.912;2022-08-19T01:20:37;99800.06;;;17.61;98.00
17072;BME280;7731;50.720;6.912;2022-08-19T01:23:12;99801.72;;;17.62;98.16
17072;BME280;7731;50.720;6.912;2022-08-19T01:25:49;99800.78;;;17.63;97.92
17072;BME280;7731;50.720;6.912;2022-08-19T01:28:27;99802.00;;;17.59;97.75
17072;BME280;7731;50.720;6.912;2022-08-19T01:31:07;99793.31;;;17.49;97.53
17072;BME280;7731;50.720;6.912;2022-08-19T01:33:56;99802.47;;;17.43;98.41
17072;BME280;7731;50.720;6.912;2022-08-19T01:36:31;99798.59;;;17.38;98.75
17072;BME280;7731;50.720;6.912;2022-08-19T01:39:09;99799.03;;;17.43;98.76
17072;BME280;7731;50.720;6.912;2022-08-19T01:41:42;99794.97;;;17.50;99.29
17072;BME280;7731;50.720;6.912;2022-08-19T01:44:12;99792.81;;;17.55;98.12
17072;BME280;7731;50.720;6.912;2022-08-19T01:46:47;99787.56;;;17.45;98.70
17072;BME280;7731;50.720;6.912;2022-08-19T01:49:21;99778.97;;;17.45;98.99
17072;BME280;7731;50.720;6.912;2022-08-19T01:51:53;99795.88;;;17.39;98.53
17072;BME280;7731;50.720;6.912;2022-08-19T01:54:26;99797.41;;;17.42;98.41
17072;BME280;7731;50.720;6.912;2022-08-19T01:57:02;99799.28;;;17.40;99.90
17072;BME280;7731;50.720;6.912;2022-08-19T01:59:35;99798.09;;;17.44;99.18
17072;BME280;7731;50.720;6.912;2022-08-19T02:02:06;99799.88;;;17.22;100.00
17072;BME280;7731;50.720;6.912;2022-08-19T02:04:38;99797.09;;;17.14;100.00
17072;BME280;7731;50.720;6.912;2022-08-19T02:07:08;99806.34;;;17.07;100.00
17072;BME280;7731;50.720;6.912;2022-08-19T02:09:41;99803.88;;;17.05;100.00
17072;BME280;7731;50.720;6.912;2022-08-19T02:12:12;99799.69;;;17.14;100.00
17072;BME280;7731;50.720;6.912;2022-08-19T02:14:43;99797.84;;;17.05;100.00
17072;BME280;7731;50.720;6.912;2022-08-19T02:17:13;99808.41;;;16.92;100.00
17072;BME280;7731;50.720;6.912;2022-08-19T02:19:44;99796.72;;;16.98;100.00
17072;BME280;7731;50.720;6.912;2022-08-19T02:22:16;99806.13;;;17.20;100.00
17072;BME280;7731;50.720;6.912;2022-08-19T02:24:49;99795.25;;;17.26;100.00
17072;BME280;7731;50.720;6.912;2022-08-19T02:27:20;99798.84;;;17.35;99.53
17072;BME280;7731;50.720;6.912;2022-08-19T02:29:51;99798.94;;;17.23;100.00
17072;BME280;7731;50.720;6.912;2022-08-19T02:32:24;99802.97;;;17.16;100.00
17072;BME280;7731;50.720;6.912;2022-08-19T02:34:54;99801.44;;;17.13;100.00
17072;BME280;7731;50.720;6.912;2022-08-19T02:37:25;99807.47;;;17.14;100.00
17072;BME280;7731;50.720;6.912;2022-08-19T02:40:11;99801.53;;;17.23;100.00
17072;BME280;7731;50.720;6.912;2022-08-19T02:42:41;99804.13;;;17.23;100.00
17072;BME280;7731;50.720;6.912;2022-08-19T02:45:15;99808.16;;;17.16;100.00
17072;BME280;7731;50.720;6.912;2022-08-19T02:47:45;99802.03;;;17.17;100.00
17072;BME280;7731;50.720;6.912;2022-08-19T02:50:15;99812.03;;;17.22;100.00
17072;BME280;7731;50.720;6.912;2022-08-19T02:52:45;99809.09;;;17.15;99.42
17072;BME280;7731;50.720;6.912;2022-08-19T02:55:19;99807.09;;;16.98;100.00
17072;BME280;7731;50.720;6.912;2022-08-19T02:57:49;99813.50;;;16.82;100.00
17072;BME280;7731;50.720;6.912;2022-08-19T03:00:20;99810.66;;;16.74;100.00
17072;BME280;7731;50.720;6.912;2022-08-19T03:02:50;99813.31;;;16.63;100.00
17072;BME280;7731;50.720;6.912;2022-08-19T03:05:23;99813.47;;;16.50;100.00
17072;BME280;7731;50.720;6.912;2022-08-19T03:08:15;99804.84;;;16.60;100.00
17072;BME280;7731;50.720;6.912;2022-08-19T03:10:50;99807.19;;;16.64;100.00
17072;BME280;7731;50.720;6.912;2022-08-19T03:13:20;99809.28;;;16.70;100.00
17072;BME280;7731;50.720;6.912;2022-08-19T03:15:51;99817.41;;;16.88;100.00
17072;BME280;7731;50.720;6.912;2022-08-19T03:18:21;99816.91;;;16.94;100.00
17072;BME280;7731;50.720;6.912;2022-08-19T03:20:54;99821.16;;;16.84;100.00
17072;BME280;7731;50.720;6.912;2022-08-19T03:23:24;99820.56;;;16.91;100.00
17072;BME280;7731;50.720;6.912;2022-08-19T03:25:58;99817.03;;;16.92;100.00
17072;BME280;7731;50.720;6.912;2022-08-19T03:28:44;99814.81;;;16.88;100.00
17072;BME280;7731;50.720;6.912;2022-08-19T03:31:27;99827.41;;;16.92;100.00
17072;BME280;7731;50.720;6.912;2022-08-19T03:34:23;99827.47;;;17.02;100.00
17072;BME280;7731;50.720;6.912;2022-08-19T03:36:57;99833.53;;;16.91;100.00
17072;BME280;7731;50.720;6.912;2022-08-19T03:39:30;99833.78;;;16.88;100.00
17072;BME280;7731;50.720;6.912;2022-08-19T03:42:04;99832.09;;;16.99;100.00
17072;BME280;7731;50.720;6.912;2022-08-19T03:44:58;99839.66;;;16.90;100.00
17072;BME280;7731;50.720;6.912;2022-08-19T03:47:28;99841.75;;;16.96;100.00
17072;BME280;7731;50.720;6.912;2022-08-19T03:50:03;99842.97;;;16.92;100.00
17072;BME280;7731;50.720;6.912;2022-08-19T03:52:34;99838.72;;;16.91;100.00
17072;BME280;7731;50.720;6.912;2022-08-19T03:55:08;99836.38;;;16.88;100.00
17072;BME280;7731;50.720;6.912;2022-08-19T03:57:41;99829.41;;;16.89;100.00
17072;BME280;7731;50.720;6.912;2022-08-19T04:00:15;99831.44;;;16.74;100.00
17072;BME280;7731;50.720;6.912;2022-08-19T04:02:47;99836.63;;;16.74;100.00
17072;BME280;7731;50.720;6.912;2022-08-19T04:05:27;99833.97;;;16.53;100.00
17072;BME280;7731;50.720;6.912;2022-08-19T04:07:58;99834.78;;;16.53;100.00
17072;BME280;7731;50.720;6.912;2022-08-19T04:10:28;99842.13;;;16.48;100.00
17072;BME280;7731;50.720;6.912;2022-08-19T04:13:01;99836.69;;;16.51;100.00
17072;BME280;7731;50.720;6.912;2022-08-19T04:15:33;99845.41;;;16.50;100.00
17072;BME280;7731;50.720;6.912;2022-08-19T04:18:07;99856.16;;;16.46;100.00
17072;BME280;7731;50.720;6.912;2022-08-19T04:20:46;99858.53;;;16.26;100.00
17072;BME280;7731;50.720;6.912;2022-08-19T04:23:17;99854.88;;;16.29;100.00
17072;BME280;7731;50.720;6.912;2022-08-19T04:25:47;99855.56;;;16.31;100.00
17072;BME280;7731;50.720;6.912;2022-08-19T04:28:20;99852.00;;;16.43;100.00
17072;BME280;7731;50.720;6.912;2022-08-19T04:30:53;99848.97;;;16.38;100.00
17072;BME280;7731;50.720;6.912;2022-08-19T04:33:25;99848.03;;;16.28;100.00
17072;BME280;7731;50.720;6.912;2022-08-19T04:35:56;99852.53;;;16.25;100.00
17072;BME280;7731;50.720;6.912;2022-08-19T04:38:27;99844.28;;;16.20;100.00
17072;BME280;7731;50.720;6.912;2022-08-19T04:40:57;99840.16;;;16.18;100.00
17072;BME280;7731;50.720;6.912;2022-08-19T04:43:45;99842.63;;;16.19;100.00
17072;BME280;7731;50.720;6.912;2022-08-19T04:46:17;99849.72;;;16.17;100.00
17072;BME280;7731;50.720;6.912;2022-08-19T04:49:08;99849.84;;;16.16;100.00
17072;BME280;7731;50.720;6.912;2022-08-19T04:51:43;99845.91;;;16.21;100.00
17072;BME280;7731;50.720;6.912;2022-08-19T04:54:15;99858.53;;;16.15;100.00
17072;BME280;7731;50.720;6.912;2022-08-19T04:57:05;99860.03;;;16.40;100.00
17072;BME280;7731;50.720;6.912;2022-08-19T04:59:40;99862.38;;;16.43;100.00
17072;BME280;7731;50.720;6.912;2022-08-19T05:02:10;99867.59;;;16.32;100.00
17072;BME280;7731;50.720;6.912;2022-08-19T05:04:40;99865.22;;;16.40;100.00
17072;BME280;7731;50.720;6.912;2022-08-19T05:07:11;99883.16;;;16.32;100.00
17072;BME280;7731;50.720;6.912;2022-08-19T05:09:46;99883.38;;;16.51;100.00
17072;BME280;7731;50.720;6.912;2022-08-19T05:12:25;99878.38;;;16.71;100.00
17072;BME280;7731;50.720;6.912;2022-08-19T05:14:59;99882.41;;;16.64;100.00
17072;BME280;7731;50.720;6.912;2022-08-19T05:17:31;99876.00;;;16.68;100.00
17072;BME280;7731;50.720;6.912;2022-08-19T05:20:07;99880.75;;;16.63;100.00
17072;BME280;7731;50.720;6.912;2022-08-19T05:22:50;99875.53;;;16.74;100.00
17072;BME280;7731;50.720;6.912;2022-08-19T05:25:22;99872.44;;;16.80;100.00
17072;BME280;7731;50.720;6.912;2022-08-19T05:27:52;99883.63;;;17.03;100.00
17072;BME280;7731;50.720;6.912;2022-08-19T05:30:25;99894.00;;;17.03;100.00
17072;BME280;7731;50.720;6.912;2022-08-19T05:33:12;99901.31;;;16.98;100.00
17072;BME280;7731;50.720;6.912;2022-08-19T05:35:43;99902.31;;;17.18;100.00
17072;BME280;7731;50.720;6.912;2022-08-19T05:38:16;99899.22;;;17.24;100.00
17072;BME280;7731;50.720;6.912;2022-08-19T05:40:49;99902.88;;;17.54;100.00
17072;BME280;7731;50.720;6.912;2022-08-19T05:43:20;99902.47;;;17.38;100.00
17072;BME280;7731;50.720;6.912;2022-08-19T05:45:53;99896.44;;;17.58;100.00
17072;BME280;7731;50.720;6.912;2022-08-19T05:48:23;99900.66;;;17.49;100.00
17072;BME280;7731;50.720;6.912;2022-08-19T05:50:53;99905.97;;;17.48;100.00
17072;BME280;7731;50.720;6.912;2022-08-19T05:53:24;99907.47;;;17.50;100.00
17072;BME280;7731;50.720;6.912;2022-08-19T05:55:54;99904.44;;;17.45;100.00
17072;BME280;7731;50.720;6.912;2022-08-19T05:58:25;99903.56;;;17.56;100.00
17072;BME280;7731;50.720;6.912;2022-08-19T06:00:57;99901.84;;;17.66;100.00
17072;BME280;7731;50.720;6.912;2022-08-19T06:03:32;99899.75;;;17.60;100.00
17072;BME280;7731;50.720;6.912;2022-08-19T06:06:07;99896.97;;;17.52;100.00
17072;BME280;7731;50.720;6.912;2022-08-19T06:08:38;99890.56;;;17.77;100.00
17072;BME280;7731;50.720;6.912;2022-08-19T06:11:18;99886.34;;;17.86;100.00
17072;BME280;7731;50.720;6.912;2022-08-19T06:13:52;99893.84;;;17.79;100.00
17072;BME280;7731;50.720;6.912;2022-08-19T06:16:29;99901.09;;;17.76;100.00
17072;BME280;7731;50.720;6.912;2022-08-19T06:19:06;99900.44;;;17.83;100.00
17072;BME280;7731;50.720;6.912;2022-08-19T06:21:39;99894.03;;;18.09;100.00
17072;BME280;7731;50.720;6.912;2022-08-19T06:24:13;99892.19;;;17.99;100.00
17072;BME280;7731;50.720;6.912;2022-08-19T06:26:47;99894.72;;;18.61;99.04
17072;BME280;7731;50.720;6.912;2022-08-19T06:29:26;99892.50;;;18.97;97.67
17072;BME280;7731;50.720;6.912;2022-08-19T06:32:04;99898.25;;;18.91;99.40
17072;BME280;7731;50.720;6.912;2022-08-19T06:34:34;99890.50;;;18.80;98.96
17072;BME280;7731;50.720;6.912;2022-08-19T06:37:07;99888.88;;;19.67;96.23
17072;BME280;7731;50.720;6.912;2022-08-19T06:39:41;99892.78;;;20.56;91.39
17072;BME280;7731;50.720;6.912;2022-08-19T06:42:13;99888.44;;;20.74;91.46
17072;BME280;7731;50.720;6.912;2022-08-19T06:44:46;99884.75;;;21.83;85.87
17072;BME280;7731;50.720;6.912;2022-08-19T06:47:22;99889.50;;;22.57;80.57
17072;BME280;7731;50.720;6.912;2022-08-19T06:49:55;99896.16;;;22.43;81.80
17072;BME280;7731;50.720;6.912;2022-08-19T06:52:30;99887.34;;;22.60;78.73
17072;BME280;7731;50.720;6.912;2022-08-19T06:55:05;99880.75;;;23.15;77.51
17072;BME280;7731;50.720;6.912;2022-08-19T06:57:37;99886.19;;;22.46;80.42
17072;BME280;7731;50.720;6.912;2022-08-19T07:00:09;99891.56;;;22.45;81.34
17072;BME280;7731;50.720;6.912;2022-08-19T07:02:44;99904.09;;;22.76;80.24
17072;BME280;7731;50.720;6.912;2022-08-19T07:05:23;99900.56;;;23.18;77.17
17072;BME280;7731;50.720;6.912;2022-08-19T07:07:54;99908.06;;;23.54;75.94
17072;BME280;7731;50.720;6.912;2022-08-19T07:10:31;99911.06;;;24.23;71.48
17072;BME280;7731;50.720;6.912;2022-08-19T07:13:02;99902.81;;;22.96;78.12
17072;BME280;7731;50.720;6.912;2022-08-19T07:15:33;99911.81;;;23.68;76.07
17072;BME280;7731;50.720;6.912;2022-08-19T07:18:08;99907.91;;;23.56;75.78
17072;BME280;7731;50.720;6.912;2022-08-19T07:20:39;99910.50;;;24.36;72.37
17072;BME280;7731;50.720;6.912;2022-08-19T07:23:13;99898.97;;;25.61;65.34
17072;BME280;7731;50.720;6.912;2022-08-19T07:25:44;99902.44;;;24.77;68.69
17072;BME280;7731;50.720;6.912;2022-08-19T07:28:19;99901.72;;;25.07;67.70
17072;BME280;7731;50.720;6.912;2022-08-19T07:30:53;99907.06;;;26.19;63.87
17072;BME280;7731;50.720;6.912;2022-08-19T07:33:26;99909.63;;;25.30;66.66
17072;BME280;7731;50.720;6.912;2022-08-19T07:35:59;99904.56;;;26.11;63.83
17072;BME280;7731;50.720;6.912;2022-08-19T07:38:29;99905.06;;;27.38;59.13
17072;BME280;7731;50.720;6.912;2022-08-19T07:41:00;99914.22;;;26.41;60.31
17072;BME280;7731;50.720;6.912;2022-08-19T07:43:31;99913.13;;;26.35;61.05
17072;BME280;7731;50.720;6.912;2022-08-19T07:46:01;99906.84;;;25.46;64.76
17072;BME280;7731;50.720;6.912;2022-08-19T07:48:57;99919.34;;;25.44;64.24
17072;BME280;7731;50.720;6.912;2022-08-19T07:51:28;99922.28;;;25.49;64.91
17072;BME280;7731;50.720;6.912;2022-08-19T07:54:03;99920.94;;;25.69;64.67
17072;BME280;7731;50.720;6.912;2022-08-19T07:56:34;99934.78;;;24.78;67.08
17072;BME280;7731;50.720;6.912;2022-08-19T07:59:04;99936.69;;;25.39;65.60
17072;BME280;7731;50.720;6.912;2022-08-19T08:01:37;99938.28;;;25.17;67.74
17072;BME280;7731;50.720;6.912;2022-08-19T08:04:13;99948.34;;;24.11;70.96
17072;BME280;7731;50.720;6.912;2022-08-19T08:06:56;99950.16;;;24.58;69.44
17072;BME280;7731;50.720;6.912;2022-08-19T08:09:42;99945.31;;;25.01;66.85
17072;BME280;7731;50.720;6.912;2022-08-19T08:12:20;99956.03;;;24.60;70.41
17072;BME280;7731;50.720;6.912;2022-08-19T08:15:08;99955.56;;;24.88;68.77
17072;BME280;7731;50.720;6.912;2022-08-19T08:17:39;99951.06;;;24.96;69.15
17072;BME280;7731;50.720;6.912;2022-08-19T08:20:20;99947.78;;;26.02;63.14
17072;BME280;7731;50.720;6.912;2022-08-19T08:22:50;99941.91;;;26.51;60.63
17072;BME280;7731;50.720;6.912;2022-08-19T08:25:35;99950.28;;;25.42;64.67
17072;BME280;7731;50.720;6.912;2022-08-19T08:28:06;99954.47;;;26.19;63.25
17072;BME280;7731;50.720;6.912;2022-08-19T08:30:45;99945.09;;;25.87;62.70
17072;BME280;7731;50.720;6.912;2022-08-19T08:33:19;99953.44;;;25.76;63.20
17072;BME280;7731;50.720;6.912;2022-08-19T08:36:06;99958.16;;;24.17;69.74
17072;BME280;7731;50.720;6.912;2022-08-19T08:38:39;99941.22;;;27.01;59.48
17072;BME280;7731;50.720;6.912;2022-08-19T08:41:25;99944.22;;;26.76;58.64
17072;BME280;7731;50.720;6.912;2022-08-19T08:43:59;99948.66;;;26.39;60.41
17072;BME280;7731;50.720;6.912;2022-08-19T08:46:36;99947.28;;;28.91;49.84
17072;BME280;7731;50.720;6.912;2022-08-19T08:49:25;99954.56;;;26.93;54.78
17072;BME280;7731;50.720;6.912;2022-08-19T08:52:04;99948.19;;;27.80;53.98
17072;BME280;7731;50.720;6.912;2022-08-19T08:54:41;99947.16;;;27.81;52.96
17072;BME280;7731;50.720;6.912;2022-08-19T08:57:30;99954.19;;;27.17;55.29
17072;BME280;7731;50.720;6.912;2022-08-19T09:00:12;99956.88;;;27.74;52.98
17072;BME280;7731;50.720;6.912;2022-08-19T09:02:47;99953.09;;;26.90;55.83
17072;BME280;7731;50.720;6.912;2022-08-19T09:05:18;99943.44;;;26.97;57.02
17072;BME280;7731;50.720;6.912;2022-08-19T09:08:08;99950.16;;;28.00;51.61
17072;BME280;7731;50.720;6.912;2022-08-19T09:10:52;99951.28;;;28.60;50.21
17072;BME280;7731;50.720;6.912;2022-08-19T09:13:33;99954.06;;;28.10;50.95
17072;BME280;7731;50.720;6.912;2022-08-19T09:16:13;99950.50;;;26.97;54.27
17072;BME280;7731;50.720;6.912;2022-08-19T09:18:51;99951.41;;;27.04;53.70
17072;BME280;7731;50.720;6.912;2022-08-19T09:21:27;99940.34;;;26.94;54.36
17072;BME280;7731;50.720;6.912;2022-08-19T09:24:04;99944.34;;;26.53;55.45
17072;BME280;7731;50.720;6.912;2022-08-19T09:26:34;99941.59;;;26.98;53.79
17072;BME280;7731;50.720;6.912;2022-08-19T09:29:19;99941.66;;;27.04;52.41
17072;BME280;7731;50.720;6.912;2022-08-19T09:31:50;99939.13;;;27.89;50.88
17072;BME280;7731;50.720;6.912;2022-08-19T09:34:21;99929.97;;;27.14;51.93
17072;BME280;7731;50.720;6.912;2022-08-19T09:36:52;99936.06;;;28.76;47.53
17072;BME280;7731;50.720;6.912;2022-08-19T09:39:28;99927.50;;;30.53;42.25
17072;BME280;7731;50.720;6.912;2022-08-19T09:42:03;99937.91;;;29.09;46.13
17072;BME280;7731;50.720;6.912;2022-08-19T09:44:56;99942.19;;;28.83;46.12
17072;BME280;7731;50.720;6.912;2022-08-19T09:47:28;99932.59;;;30.02;42.71
17072;BME280;7731;50.720;6.912;2022-08-19T09:50:00;99925.81;;;30.13;42.31
17072;BME280;7731;50.720;6.912;2022-08-19T09:52:30;99916.59;;;31.94;37.58
17072;BME280;7731;50.720;6.912;2022-08-19T09:55:10;99929.56;;;28.78;44.52
17072;BME280;7731;50.720;6.912;2022-08-19T09:57:40;99919.34;;;30.02;41.57
17072;BME280;7731;50.720;6.912;2022-08-19T10:00:12;99924.69;;;29.82;42.68
17072;BME280;7731;50.720;6.912;2022-08-19T10:02:42;99922.44;;;29.79;40.81
17072;BME280;7731;50.720;6.912;2022-08-19T10:05:12;99934.53;;;27.70;46.59
17072;BME280;7731;50.720;6.912;2022-08-19T10:07:57;99937.13;;;27.20;48.41
17072;BME280;7731;50.720;6.912;2022-08-19T10:10:35;99928.75;;;27.59;47.95
17072;BME280;7731;50.720;6.912;2022-08-19T10:13:09;99932.69;;;27.99;46.50
17072;BME280;7731;50.720;6.912;2022-08-19T10:15:40;99937.81;;;27.50;47.32
17072;BME280;7731;50.720;6.912;2022-08-19T10:18:15;99926.31;;;28.96;43.05
17072;BME280;7731;50.720;6.912;2022-08-19T10:20:47;99925.78;;;28.04;44.79
17072;BME280;7731;50.720;6.912;2022-08-19T10:23:20;99925.88;;;28.66;43.94
17072;BME280;7731;50.720;6.912;2022-08-19T10:25:53;99928.72;;;28.16;45.20
17072;BME280;7731;50.720;6.912;2022-08-19T10:28:24;99922.03;;;27.85;45.86
17072;BME280;7731;50.720;6.912;2022-08-19T10:30:56;99930.34;;;28.17;45.06
17072;BME280;7731;50.720;6.912;2022-08-19T10:33:26;99931.81;;;27.13;47.22
17072;BME280;7731;50.720;6.912;2022-08-19T10:36:21;99920.59;;;28.24;45.40
17072;BME280;7731;50.720;6.912;2022-08-19T10:38:56;99899.06;;;29.43;42.74
17072;BME280;7731;50.720;6.912;2022-08-19T10:41:35;99903.22;;;30.10;40.49
17072;BME280;7731;50.720;6.912;2022-08-19T10:44:10;99917.38;;;28.97;43.75
17072;BME280;7731;50.720;6.912;2022-08-19T10:46:44;99915.84;;;26.78;49.74
17072;BME280;7731;50.720;6.912;2022-08-19T10:49:16;99923.03;;;28.19;47.27
17072;BME280;7731;50.720;6.912;2022-08-19T10:51:46;99919.81;;;28.30;45.91
17072;BME280;7731;50.720;6.912;2022-08-19T10:54:29;99919.50;;;27.20;48.15
17072;BME280;7731;50.720;6.912;2022-08-19T10:57:15;99916.00;;;27.35;47.76
17072;BME280;7731;50.720;6.912;2022-08-19T10:59:45;99912.84;;;27.03;49.47
17072;BME280;7731;50.720;6.912;2022-08-19T11:02:15;99903.91;;;26.97;48.87
17072;BME280;7731;50.720;6.912;2022-08-19T11:04:46;99908.81;;;26.64;49.42
17072;BME280;7731;50.720;6.912;2022-08-19T11:07:18;99909.19;;;27.75;47.89
17072;BME280;7731;50.720;6.912;2022-08-19T11:09:48;99909.38;;;27.74;48.24
17072;BME280;7731;50.720;6.912;2022-08-19T11:12:21;99902.00;;;28.46;45.78
17072;BME280;7731;50.720;6.912;2022-08-19T11:14:51;99899.28;;;29.21;43.49
17072;BME280;7731;50.720;6.912;2022-08-19T11:17:21;99889.91;;;29.18;43.18
17072;BME280;7731;50.720;6.912;2022-08-19T11:19:52;99889.94;;;29.52;41.30
17072;BME280;7731;50.720;6.912;2022-08-19T11:22:22;99896.69;;;28.39;44.74
17072;BME280;7731;50.720;6.912;2022-08-19T11:25:04;99890.84;;;28.57;43.59
17072;BME280;7731;50.720;6.912;2022-08-19T11:27:41;99896.56;;;26.93;48.47
17072;BME280;7731;50.720;6.912;2022-08-19T11:30:13;99898.78;;;27.17;49.51
17072;BME280;7731;50.720;6.912;2022-08-19T11:32:44;99894.63;;;27.58;48.20
17072;BME280;7731;50.720;6.912;2022-08-19T11:35:16;99883.19;;;27.22;48.92
17072;BME280;7731;50.720;6.912;2022-08-19T11:37:47;99895.28;;;27.32;48.06
17072;BME280;7731;50.720;6.912;2022-08-19T11:40:18;99891.00;;;27.09;49.34
17072;BME280;7731;50.720;6.912;2022-08-19T11:42:51;99884.16;;;27.65;48.21
17072;BME280;7731;50.720;6.912;2022-08-19T11:45:28;99886.47;;;27.46;47.45
17072;BME280;7731;50.720;6.912;2022-08-19T11:47:58;99892.06;;;27.15;48.76
17072;BME280;7731;50.720;6.912;2022-08-19T11:50:29;99886.53;;;27.59;46.99
17072;BME280;7731;50.720;6.912;2022-08-19T11:53:02;99885.25;;;26.99;48.93
17072;BME280;7731;50.720;6.912;2022-08-19T11:55:37;99888.72;;;27.49;46.45
17072;BME280;7731;50.720;6.912;2022-08-19T11:58:15;99893.75;;;27.79;46.12
17072;BME280;7731;50.720;6.912;2022-08-19T12:00:46;99891.75;;;27.46;47.28
17072;BME280;7731;50.720;6.912;2022-08-19T12:03:19;99887.38;;;27.10;48.29
17072;BME280;7731;50.720;6.912;2022-08-19T12:05:49;99888.13;;;27.04;48.71
17072;BME280;7731;50.720;6.912;2022-08-19T12:08:20;99888.25;;;27.17;48.53
17072;BME280;7731;50.720;6.912;2022-08-19T12:10:50;99890.09;;;27.45;48.58
17072;BME280;7731;50.720;6.912;2022-08-19T12:13:23;99897.91;;;27.10;49.39
17072;BME280;7731;50.720;6.912;2022-08-19T12:15:53;99882.81;;;28.17;46.62
17072;BME280;7731;50.720;6.912;2022-08-19T12:18:24;99889.63;;;27.35;48.85
17072;BME280;7731;50.720;6.912;2022-08-19T12:20:54;99886.59;;;27.16;49.17
17072;BME280;7731;50.720;6.912;2022-08-19T12:23:26;99884.88;;;27.02;49.56
17072;BME280;7731;50.720;6.912;2022-08-19T12:25:56;99874.44;;;26.94;48.53
17072;BME280;7731;50.720;6.912;2022-08-19T12:28:30;99876.50;;;27.41;47.47
17072;BME280;7731;50.720;6.912;2022-08-19T12:31:00;99876.53;;;27.48;46.85
17072;BME280;7731;50.720;6.912;2022-08-19T12:33:31;99875.94;;;28.29;45.12
17072;BME280;7731;50.720;6.912;2022-08-19T12:36:06;99877.84;;;28.56;43.85
17072;BME280;7731;50.720;6.912;2022-08-19T12:38:39;99878.38;;;27.54;45.31
17072;BME280;7731;50.720;6.912;2022-08-19T12:41:15;99871.06;;;27.85;45.11
17072;BME280;7731;50.720;6.912;2022-08-19T12:43:49;99875.81;;;27.96;44.18
17072;BME280;7731;50.720;6.912;2022-08-19T12:46:20;99867.75;;;28.11;42.24
17072;BME280;7731;50.720;6.912;2022-08-19T12:48:52;99863.66;;;28.90;39.66
17072;BME280;7731;50.720;6.912;2022-08-19T12:51:23;99873.09;;;28.38;41.35
17072;BME280;7731;50.720;6.912;2022-08-19T12:53:54;99865.50;;;27.73;42.44
17072;BME280;7731;50.720;6.912;2022-08-19T12:56:25;99855.03;;;27.86;42.00
17072;BME280;7731;50.720;6.912;2022-08-19T12:58:57;99851.75;;;27.84;41.12
17072;BME280;7731;50.720;6.912;2022-08-19T13:01:30;99846.41;;;28.12;39.40
17072;BME280;7731;50.720;6.912;2022-08-19T13:04:00;99848.31;;;27.90;39.46
17072;BME280;7731;50.720;6.912;2022-08-19T13:06:31;99845.66;;;27.84;39.94
17072;BME280;7731;50.720;6.912;2022-08-19T13:09:01;99846.59;;;27.69;41.89
17072;BME280;7731;50.720;6.912;2022-08-19T13:11:32;99846.63;;;28.24;39.86
17072;BME280;7731;50.720;6.912;2022-08-19T13:14:05;99838.44;;;28.06;38.54
17072;BME280;7731;50.720;6.912;2022-08-19T13:16:36;99848.09;;;27.85;38.83
17072;BME280;7731;50.720;6.912;2022-08-19T13:19:07;99846.56;;;28.04;38.53
17072;BME280;7731;50.720;6.912;2022-08-19T13:21:39;99841.94;;;28.13;38.05
17072;BME280;7731;50.720;6.912;2022-08-19T13:24:09;99834.38;;;28.78;37.00
17072;BME280;7731;50.720;6.912;2022-08-19T13:26:39;99835.25;;;28.17;40.10
17072;BME280;7731;50.720;6.912;2022-08-19T13:29:12;99838.09;;;28.15;40.88
17072;BME280;7731;50.720;6.912;2022-08-19T13:31:55;99839.00;;;27.94;41.50
17072;BME280;7731;50.720;6.912;2022-08-19T13:34:45;99844.22;;;27.81;40.10
17072;BME280;7731;50.720;6.912;2022-08-19T13:37:15;99842.75;;;27.72;41.25
17072;BME280;7731;50.720;6.912;2022-08-19T13:40:11;99830.63;;;28.32;39.86
17072;BME280;7731;50.720;6.912;2022-08-19T13:42:47;99826.63;;;28.70;39.12
17072;BME280;7731;50.720;6.912;2022-08-19T13:45:23;99830.38;;;28.14;40.80